Terminal Aerodrome Forecast
Issued by NWS Missoula, MT

Home | Current Version | Previous Version | Text Only | Print | Product List | Glossary On
Versions: 1 2 3 4 5 6 7 8 9 10 11 12
000
FTUS45 KMSO 061720
TAFGPI
TAF
KGPI 061720Z 0618/0718 14005KT P6SM FEW080
     FM070000 02011KT P6SM SCT100
     FM070600 01015G22KT P6SM OVC100
     FM071200 35006KT P6SM OVC100=

USA.gov is the U.S. government's official web portal to all federal, state and local government web resources and services.